sensor_id;sensor_type;location;lat;lon;timestamp;P1;durP1;ratioP1;P2;durP2;ratioP2
61673;SDS011;47573;43.832;5.974;2023-04-03T00:04:11;368.70;;;259.80;;
61673;SDS011;47573;43.832;5.974;2023-04-03T00:10:53;344.73;;;241.50;;
61673;SDS011;47573;43.832;5.974;2023-04-03T00:17:33;304.52;;;209.15;;
61673;SDS011;47573;43.832;5.974;2023-04-03T00:24:14;323.13;;;226.07;;
61673;SDS011;47573;43.832;5.974;2023-04-03T00:30:56;309.70;;;215.63;;
61673;SDS011;47573;43.832;5.974;2023-04-03T00:37:37;296.40;;;207.57;;
61673;SDS011;47573;43.832;5.974;2023-04-03T00:44:21;297.20;;;203.27;;
61673;SDS011;47573;43.832;5.974;2023-04-03T00:51:24;276.65;;;188.20;;
61673;SDS011;47573;43.832;5.974;2023-04-03T00:58:05;260.45;;;178.00;;
61673;SDS011;47573;43.832;5.974;2023-04-03T01:04:47;266.38;;;177.70;;
61673;SDS011;47573;43.832;5.974;2023-04-03T01:11:29;249.47;;;167.80;;
61673;SDS011;47573;43.832;5.974;2023-04-03T01:18:09;248.82;;;164.70;;
61673;SDS011;47573;43.832;5.974;2023-04-03T01:24:50;231.70;;;152.68;;
61673;SDS011;47573;43.832;5.974;2023-04-03T01:38:23;213.45;;;141.52;;
61673;SDS011;47573;43.832;5.974;2023-04-03T01:45:04;214.38;;;141.80;;
61673;SDS011;47573;43.832;5.974;2023-04-03T01:51:46;215.18;;;142.27;;
61673;SDS011;47573;43.832;5.974;2023-04-03T01:58:27;208.30;;;138.68;;
61673;SDS011;47573;43.832;5.974;2023-04-03T02:05:08;199.83;;;132.63;;
61673;SDS011;47573;43.832;5.974;2023-04-03T02:11:50;185.63;;;125.13;;
61673;SDS011;47573;43.832;5.974;2023-04-03T02:18:30;185.15;;;124.28;;
61673;SDS011;47573;43.832;5.974;2023-04-03T02:25:11;180.33;;;118.33;;
61673;SDS011;47573;43.832;5.974;2023-04-03T02:31:53;165.10;;;110.38;;
61673;SDS011;47573;43.832;5.974;2023-04-03T02:38:33;162.70;;;107.65;;
61673;SDS011;47573;43.832;5.974;2023-04-03T02:45:14;165.52;;;109.32;;
61673;SDS011;47573;43.832;5.974;2023-04-03T02:51:56;158.48;;;105.38;;
61673;SDS011;47573;43.832;5.974;2023-04-03T02:58:37;149.38;;;100.97;;
61673;SDS011;47573;43.832;5.974;2023-04-03T03:05:18;136.97;;;92.03;;
61673;SDS011;47573;43.832;5.974;2023-04-03T03:11:59;129.63;;;86.55;;
61673;SDS011;47573;43.832;5.974;2023-04-03T03:18:40;126.30;;;84.88;;
61673;SDS011;47573;43.832;5.974;2023-04-03T03:25:20;123.65;;;82.05;;
61673;SDS011;47573;43.832;5.974;2023-04-03T03:32:02;116.70;;;76.77;;
61673;SDS011;47573;43.832;5.974;2023-04-03T03:38:43;117.37;;;76.67;;
61673;SDS011;47573;43.832;5.974;2023-04-03T03:45:24;112.63;;;74.90;;
61673;SDS011;47573;43.832;5.974;2023-04-03T03:52:06;110.20;;;71.90;;
61673;SDS011;47573;43.832;5.974;2023-04-03T03:58:46;106.30;;;69.40;;
61673;SDS011;47573;43.832;5.974;2023-04-03T04:05:27;98.15;;;63.20;;
61673;SDS011;47573;43.832;5.974;2023-04-03T04:12:09;92.07;;;60.17;;
61673;SDS011;47573;43.832;5.974;2023-04-03T04:18:49;93.43;;;60.92;;
61673;SDS011;47573;43.832;5.974;2023-04-03T04:25:30;85.13;;;55.13;;
61673;SDS011;47573;43.832;5.974;2023-04-03T04:32:12;81.75;;;53.83;;
61673;SDS011;47573;43.832;5.974;2023-04-03T04:38:53;77.82;;;52.47;;
61673;SDS011;47573;43.832;5.974;2023-04-03T04:45:33;78.77;;;50.87;;
61673;SDS011;47573;43.832;5.974;2023-04-03T04:52:15;73.60;;;49.65;;
61673;SDS011;47573;43.832;5.974;2023-04-03T04:58:55;67.22;;;45.78;;
61673;SDS011;47573;43.832;5.974;2023-04-03T05:05:36;69.07;;;45.70;;
61673;SDS011;47573;43.832;5.974;2023-04-03T05:12:18;66.53;;;43.20;;
61673;SDS011;47573;43.832;5.974;2023-04-03T05:18:58;63.63;;;41.67;;
61673;SDS011;47573;43.832;5.974;2023-04-03T05:25:39;59.27;;;39.57;;
61673;SDS011;47573;43.832;5.974;2023-04-03T05:32:20;60.47;;;40.30;;
61673;SDS011;47573;43.832;5.974;2023-04-03T05:39:01;57.15;;;39.05;;
61673;SDS011;47573;43.832;5.974;2023-04-03T05:45:43;58.38;;;39.38;;
61673;SDS011;47573;43.832;5.974;2023-04-03T05:52:25;382.42;;;123.03;;
61673;SDS011;47573;43.832;5.974;2023-04-03T05:59:07;275.42;;;80.22;;
61673;SDS011;47573;43.832;5.974;2023-04-03T06:05:47;139.27;;;52.47;;
61673;SDS011;47573;43.832;5.974;2023-04-03T06:12:29;325.73;;;92.97;;
61673;SDS011;47573;43.832;5.974;2023-04-03T06:19:10;242.85;;;69.03;;
61673;SDS011;47573;43.832;5.974;2023-04-03T06:25:51;88.22;;;37.30;;
61673;SDS011;47573;43.832;5.974;2023-04-03T06:32:33;85.10;;;35.10;;
61673;SDS011;47573;43.832;5.974;2023-04-03T06:39:14;129.50;;;45.97;;
61673;SDS011;47573;43.832;5.974;2023-04-03T06:45:56;73.93;;;32.20;;
61673;SDS011;47573;43.832;5.974;2023-04-03T06:52:38;79.72;;;33.20;;
61673;SDS011;47573;43.832;5.974;2023-04-03T06:59:19;61.17;;;28.48;;
61673;SDS011;47573;43.832;5.974;2023-04-03T07:05:59;1144.70;;;400.10;;
61673;SDS011;47573;43.832;5.974;2023-04-03T07:12:41;64.60;;;27.73;;
61673;SDS011;47573;43.832;5.974;2023-04-03T07:19:22;50.33;;;24.38;;
61673;SDS011;47573;43.832;5.974;2023-04-03T07:26:02;41.63;;;23.83;;
61673;SDS011;47573;43.832;5.974;2023-04-03T07:32:44;325.23;;;110.75;;
61673;SDS011;47573;43.832;5.974;2023-04-03T07:39:25;41.90;;;21.92;;
61673;SDS011;47573;43.832;5.974;2023-04-03T07:46:05;92.73;;;30.63;;
61673;SDS011;47573;43.832;5.974;2023-04-03T07:52:47;42.70;;;23.20;;
61673;SDS011;47573;43.832;5.974;2023-04-03T07:59:28;39.63;;;19.97;;
61673;SDS011;47573;43.832;5.974;2023-04-03T08:06:09;29.90;;;17.88;;
61673;SDS011;47573;43.832;5.974;2023-04-03T08:12:51;28.45;;;17.48;;
61673;SDS011;47573;43.832;5.974;2023-04-03T08:19:31;25.05;;;16.38;;
61673;SDS011;47573;43.832;5.974;2023-04-03T08:26:12;23.07;;;15.80;;
61673;SDS011;47573;43.832;5.974;2023-04-03T08:32:55;21.27;;;15.40;;
61673;SDS011;47573;43.832;5.974;2023-04-03T08:39:35;21.98;;;15.18;;
61673;SDS011;47573;43.832;5.974;2023-04-03T08:46:16;20.35;;;14.70;;
61673;SDS011;47573;43.832;5.974;2023-04-03T08:53:01;18.65;;;13.40;;
61673;SDS011;47573;43.832;5.974;2023-04-03T08:59:43;18.52;;;13.60;;
61673;SDS011;47573;43.832;5.974;2023-04-03T09:06:25;20.45;;;13.90;;
61673;SDS011;47573;43.832;5.974;2023-04-03T09:13:10;19.08;;;13.52;;
61673;SDS011;47573;43.832;5.974;2023-04-03T09:19:58;738.55;;;310.25;;
61673;SDS011;47573;43.832;5.974;2023-04-03T09:26:48;245.95;;;64.68;;
61673;SDS011;47573;43.832;5.974;2023-04-03T09:33:33;23.98;;;14.30;;
61673;SDS011;47573;43.832;5.974;2023-04-03T09:40:28;22.70;;;12.98;;
61673;SDS011;47573;43.832;5.974;2023-04-03T09:47:19;16.73;;;12.18;;
61673;SDS011;47573;43.832;5.974;2023-04-03T09:54:23;23.20;;;13.30;;
61673;SDS011;47573;43.832;5.974;2023-04-03T10:01:05;18.10;;;12.07;;
61673;SDS011;47573;43.832;5.974;2023-04-03T10:07:50;16.15;;;11.55;;
61673;SDS011;47573;43.832;5.974;2023-04-03T10:14:32;15.77;;;11.63;;
61673;SDS011;47573;43.832;5.974;2023-04-03T10:21:15;15.60;;;11.25;;
61673;SDS011;47573;43.832;5.974;2023-04-03T10:27:59;16.90;;;11.95;;
61673;SDS011;47573;43.832;5.974;2023-04-03T10:34:43;15.47;;;10.77;;
61673;SDS011;47573;43.832;5.974;2023-04-03T10:48:11;12.27;;;8.32;;
61673;SDS011;47573;43.832;5.974;2023-04-03T10:55:04;11.88;;;6.72;;
61673;SDS011;47573;43.832;5.974;2023-04-03T11:01:56;9.73;;;6.40;;
61673;SDS011;47573;43.832;5.974;2023-04-03T11:08:42;6.68;;;4.93;;
61673;SDS011;47573;43.832;5.974;2023-04-03T11:15:26;5.07;;;3.88;;
61673;SDS011;47573;43.832;5.974;2023-04-03T11:22:11;4.47;;;3.53;;
61673;SDS011;47573;43.832;5.974;2023-04-03T11:29:02;11.18;;;4.00;;
61673;SDS011;47573;43.832;5.974;2023-04-03T11:35:51;4.68;;;3.20;;
61673;SDS011;47573;43.832;5.974;2023-04-03T11:42:34;3.63;;;3.17;;
61673;SDS011;47573;43.832;5.974;2023-04-03T11:56:36;3.65;;;3.05;;
61673;SDS011;47573;43.832;5.974;2023-04-03T12:03:29;7.50;;;3.50;;
61673;SDS011;47573;43.832;5.974;2023-04-03T12:10:30;3.47;;;3.15;;
61673;SDS011;47573;43.832;5.974;2023-04-03T12:17:18;3.80;;;3.17;;
61673;SDS011;47573;43.832;5.974;2023-04-03T12:24:03;5.15;;;3.50;;
61673;SDS011;47573;43.832;5.974;2023-04-03T12:31:03;4.63;;;3.42;;
61673;SDS011;47573;43.832;5.974;2023-04-03T12:37:51;3.72;;;3.30;;
61673;SDS011;47573;43.832;5.974;2023-04-03T12:44:47;3.58;;;3.22;;
61673;SDS011;47573;43.832;5.974;2023-04-03T12:51:37;3.72;;;3.10;;
61673;SDS011;47573;43.832;5.974;2023-04-03T12:58:22;5.50;;;3.55;;
61673;SDS011;47573;43.832;5.974;2023-04-03T13:05:05;5.15;;;3.47;;
61673;SDS011;47573;43.832;5.974;2023-04-03T13:11:48;4.15;;;3.08;;
61673;SDS011;47573;43.832;5.974;2023-04-03T13:18:33;3.13;;;2.83;;
61673;SDS011;47573;43.832;5.974;2023-04-03T13:25:15;5.97;;;3.25;;
61673;SDS011;47573;43.832;5.974;2023-04-03T13:31:57;3.53;;;3.13;;
61673;SDS011;47573;43.832;5.974;2023-04-03T13:38:41;4.18;;;3.20;;
61673;SDS011;47573;43.832;5.974;2023-04-03T13:45:22;9.63;;;7.28;;
61673;SDS011;47573;43.832;5.974;2023-04-03T13:52:18;25.67;;;19.23;;
61673;SDS011;47573;43.832;5.974;2023-04-03T13:59:06;94.80;;;41.42;;
61673;SDS011;47573;43.832;5.974;2023-04-03T14:06:04;69.45;;;30.20;;
61673;SDS011;47573;43.832;5.974;2023-04-03T14:19:28;29.60;;;22.48;;
61673;SDS011;47573;43.832;5.974;2023-04-03T14:26:10;27.83;;;21.95;;
61673;SDS011;47573;43.832;5.974;2023-04-03T14:32:52;28.90;;;21.40;;
61673;SDS011;47573;43.832;5.974;2023-04-03T14:39:34;28.40;;;21.63;;
61673;SDS011;47573;43.832;5.974;2023-04-03T14:46:16;28.10;;;21.50;;
61673;SDS011;47573;43.832;5.974;2023-04-03T14:59:39;26.88;;;19.83;;
61673;SDS011;47573;43.832;5.974;2023-04-03T15:06:20;28.23;;;21.07;;
61673;SDS011;47573;43.832;5.974;2023-04-03T15:13:01;48.88;;;35.35;;
61673;SDS011;47573;43.832;5.974;2023-04-03T15:19:43;53.03;;;39.03;;
61673;SDS011;47573;43.832;5.974;2023-04-03T15:26:24;56.53;;;37.60;;
61673;SDS011;47573;43.832;5.974;2023-04-03T15:33:05;67.80;;;41.55;;
61673;SDS011;47573;43.832;5.974;2023-04-03T15:39:47;59.83;;;43.78;;
61673;SDS011;47573;43.832;5.974;2023-04-03T15:46:27;75.72;;;50.92;;
61673;SDS011;47573;43.832;5.974;2023-04-03T15:53:08;98.65;;;64.18;;
61673;SDS011;47573;43.832;5.974;2023-04-03T15:59:50;104.80;;;69.95;;
61673;SDS011;47573;43.832;5.974;2023-04-03T16:06:31;106.03;;;69.90;;
61673;SDS011;47573;43.832;5.974;2023-04-03T16:13:12;130.57;;;88.40;;
61673;SDS011;47573;43.832;5.974;2023-04-03T16:19:54;153.00;;;105.53;;
61673;SDS011;47573;43.832;5.974;2023-04-03T16:26:35;148.23;;;100.13;;
61673;SDS011;47573;43.832;5.974;2023-04-03T16:33:16;161.48;;;109.28;;
61673;SDS011;47573;43.832;5.974;2023-04-03T16:39:58;200.50;;;136.30;;
61673;SDS011;47573;43.832;5.974;2023-04-03T16:46:39;197.95;;;132.82;;
61673;SDS011;47573;43.832;5.974;2023-04-03T16:53:19;237.50;;;159.27;;
61673;SDS011;47573;43.832;5.974;2023-04-03T17:00:01;245.47;;;164.40;;
61673;SDS011;47573;43.832;5.974;2023-04-03T17:06:42;238.02;;;163.50;;
61673;SDS011;47573;43.832;5.974;2023-04-03T17:13:22;266.33;;;187.20;;
61673;SDS011;47573;43.832;5.974;2023-04-03T17:20:05;289.87;;;206.77;;
61673;SDS011;47573;43.832;5.974;2023-04-03T17:26:47;280.20;;;193.32;;
61673;SDS011;47573;43.832;5.974;2023-04-03T17:33:27;282.20;;;193.73;;
61673;SDS011;47573;43.832;5.974;2023-04-03T17:40:10;270.20;;;188.60;;
61673;SDS011;47573;43.832;5.974;2023-04-03T17:46:51;313.88;;;221.02;;
61673;SDS011;47573;43.832;5.974;2023-04-03T17:53:31;320.45;;;226.40;;
61673;SDS011;47573;43.832;5.974;2023-04-03T18:00:14;308.55;;;218.38;;
61673;SDS011;47573;43.832;5.974;2023-04-03T18:06:55;303.25;;;211.60;;
61673;SDS011;47573;43.832;5.974;2023-04-03T18:13:36;355.88;;;238.77;;
61673;SDS011;47573;43.832;5.974;2023-04-03T18:20:18;315.75;;;208.98;;
61673;SDS011;47573;43.832;5.974;2023-04-03T18:27:00;318.07;;;214.43;;
61673;SDS011;47573;43.832;5.974;2023-04-03T18:33:44;323.02;;;217.40;;
61673;SDS011;47573;43.832;5.974;2023-04-03T18:40:25;304.08;;;197.93;;
61673;SDS011;47573;43.832;5.974;2023-04-03T18:47:06;314.75;;;211.90;;
61673;SDS011;47573;43.832;5.974;2023-04-03T18:53:47;321.75;;;221.40;;
61673;SDS011;47573;43.832;5.974;2023-04-03T19:00:29;303.43;;;200.83;;
61673;SDS011;47573;43.832;5.974;2023-04-03T19:07:10;290.27;;;187.07;;
61673;SDS011;47573;43.832;5.974;2023-04-03T19:13:51;388.07;;;256.10;;
61673;SDS011;47573;43.832;5.974;2023-04-03T19:20:32;440.03;;;282.07;;
61673;SDS011;47573;43.832;5.974;2023-04-03T19:27:13;433.95;;;280.23;;
61673;SDS011;47573;43.832;5.974;2023-04-03T19:33:53;441.48;;;287.23;;
61673;SDS011;47573;43.832;5.974;2023-04-03T19:40:35;495.20;;;323.37;;
61673;SDS011;47573;43.832;5.974;2023-04-03T19:47:16;521.10;;;347.65;;
61673;SDS011;47573;43.832;5.974;2023-04-03T19:53:57;542.67;;;368.02;;
61673;SDS011;47573;43.832;5.974;2023-04-03T20:00:39;536.20;;;363.63;;
61673;SDS011;47573;43.832;5.974;2023-04-03T20:07:19;525.63;;;358.97;;
61673;SDS011;47573;43.832;5.974;2023-04-03T20:14:00;544.20;;;382.73;;
61673;SDS011;47573;43.832;5.974;2023-04-03T20:20:42;540.83;;;377.80;;
61673;SDS011;47573;43.832;5.974;2023-04-03T20:27:23;509.43;;;352.00;;
61673;SDS011;47573;43.832;5.974;2023-04-03T20:34:04;509.25;;;352.02;;
61673;SDS011;47573;43.832;5.974;2023-04-03T20:40:46;479.97;;;328.33;;
61673;SDS011;47573;43.832;5.974;2023-04-03T20:47:26;502.73;;;347.63;;
61673;SDS011;47573;43.832;5.974;2023-04-03T20:54:07;504.57;;;349.97;;
61673;SDS011;47573;43.832;5.974;2023-04-03T21:00:49;483.80;;;331.77;;
61673;SDS011;47573;43.832;5.974;2023-04-03T21:22:07;491.30;;;336.85;;
61673;SDS011;47573;43.832;5.974;2023-04-03T21:28:49;500.47;;;343.63;;
61673;SDS011;47573;43.832;5.974;2023-04-03T21:35:30;516.50;;;363.55;;
61673;SDS011;47573;43.832;5.974;2023-04-03T21:42:12;481.30;;;330.50;;
61673;SDS011;47573;43.832;5.974;2023-04-03T21:48:52;476.58;;;329.52;;
61673;SDS011;47573;43.832;5.974;2023-04-03T21:55:33;462.87;;;315.40;;
61673;SDS011;47573;43.832;5.974;2023-04-03T22:02:15;438.55;;;306.77;;
61673;SDS011;47573;43.832;5.974;2023-04-03T22:08:55;448.50;;;303.48;;
61673;SDS011;47573;43.832;5.974;2023-04-03T22:15:36;423.73;;;292.33;;
61673;SDS011;47573;43.832;5.974;2023-04-03T22:22:17;411.80;;;281.87;;
61673;SDS011;47573;43.832;5.974;2023-04-03T22:28:58;410.10;;;285.58;;
61673;SDS011;47573;43.832;5.974;2023-04-03T22:35:44;400.92;;;273.05;;
61673;SDS011;47573;43.832;5.974;2023-04-03T22:42:26;385.77;;;268.15;;
61673;SDS011;47573;43.832;5.974;2023-04-03T22:49:06;376.65;;;258.08;;
61673;SDS011;47573;43.832;5.974;2023-04-03T22:55:52;368.70;;;254.30;;
61673;SDS011;47573;43.832;5.974;2023-04-03T23:02:35;373.40;;;258.55;;
61673;SDS011;47573;43.832;5.974;2023-04-03T23:09:15;377.98;;;259.42;;
61673;SDS011;47573;43.832;5.974;2023-04-03T23:15:56;353.57;;;243.13;;
61673;SDS011;47573;43.832;5.974;2023-04-03T23:22:39;334.65;;;230.30;;
61673;SDS011;47573;43.832;5.974;2023-04-03T23:29:21;320.30;;;217.00;;
61673;SDS011;47573;43.832;5.974;2023-04-03T23:36:04;303.90;;;201.70;;
61673;SDS011;47573;43.832;5.974;2023-04-03T23:42:47;304.63;;;207.25;;
61673;SDS011;47573;43.832;5.974;2023-04-03T23:49:27;317.83;;;212.30;;
61673;SDS011;47573;43.832;5.974;2023-04-03T23:56:08;305.97;;;205.77;;
